Time;durP1;ratioP1;P1;durP2;ratioP2;P2;SDS_P1;SDS_P2;PMS_P1;PMS_P2;Temp;Humidity;BMP_temperature;BMP_pressure;BME280_temperature;BME280_humidity;BME280_pressure;Samples;Min_cycle;Max_cycle;Signal;HPM_P1;HPM_P2
2022/11/24 00:01:14;;;;;;;22.92;11.38;;;8.40;99.90;;;;;;6063458;23;93172;-72
2022/11/24 00:03:46;;;;;;;21.52;11.23;;;8.40;99.90;;;;;;6062148;23;95974;-72
2022/11/24 00:06:14;;;;;;;24.48;10.82;;;8.40;99.90;;;;;;6064839;23;95330;-72
2022/11/24 00:08:43;;;;;;;16.88;9.45;;;8.50;99.90;;;;;;6063477;23;92350;-72
2022/11/24 00:11:19;;;;;;;21.08;9.93;;;8.50;99.90;;;;;;6039911;23;92751;-72
2022/11/24 00:13:47;;;;;;;16.10;9.60;;;8.60;99.90;;;;;;6066180;23;93245;-72
2022/11/24 00:16:22;;;;;;;22.63;10.68;;;8.50;99.90;;;;;;6065403;23;92931;-72
2022/11/24 00:18:51;;;;;;;17.55;10.18;;;8.50;99.90;;;;;;6040778;23;92517;-72
2022/11/24 00:21:19;;;;;;;20.48;9.90;;;8.50;99.90;;;;;;6063892;23;91917;-72
2022/11/24 00:23:47;;;;;;;22.70;10.27;;;8.50;99.90;;;;;;6065671;23;93123;-72
2022/11/24 00:26:19;;;;;;;22.85;10.45;;;8.40;99.90;;;;;;6064702;23;92933;-72
2022/11/24 00:28:48;;;;;;;21.15;9.75;;;8.40;99.90;;;;;;6062200;23;94833;-72
2022/11/24 00:31:27;;;;;;;21.20;9.88;;;8.40;99.90;;;;;;6065608;23;92478;-72
2022/11/24 00:33:57;;;;;;;22.45;9.30;;;8.30;99.90;;;;;;6065344;23;93212;-72
2022/11/24 00:36:26;;;;;;;20.38;9.38;;;8.20;99.90;;;;;;6066766;23;92837;-72
2022/11/24 00:38:55;;;;;;;23.90;8.57;;;8.30;99.90;;;;;;6067208;23;92320;-72
2022/11/24 00:41:23;;;;;;;16.85;7.60;;;8.20;99.90;;;;;;6067116;23;92526;-72
2022/11/24 00:43:50;;;;;;;21.42;8.20;;;8.20;99.90;;;;;;6065081;23;93121;-72
2022/11/24 00:46:18;;;;;;;18.55;8.85;;;8.20;99.90;;;;;;6067040;23;93000;-72
2022/11/24 00:48:46;;;;;;;23.10;8.80;;;8.20;99.90;;;;;;6065682;23;92417;-72
2022/11/24 00:51:14;;;;;;;17.52;8.20;;;8.10;99.90;;;;;;6067114;23;92889;-72
2022/11/24 00:53:42;;;;;;;18.00;8.48;;;8.10;99.90;;;;;;6063743;23;95859;-72
2022/11/24 00:56:10;;;;;;;18.75;7.63;;;8.10;99.90;;;;;;6064705;23;97925;-72
2022/11/24 00:58:38;;;;;;;18.02;8.15;;;8.00;99.90;;;;;;6065595;23;92493;-72
2022/11/24 01:01:12;;;;;;;19.95;8.40;;;8.00;99.90;;;;;;6066965;23;92379;-72
2022/11/24 01:03:39;;;;;;;17.80;7.00;;;8.00;99.90;;;;;;6065238;23;95706;-72
2022/11/24 01:06:10;;;;;;;16.00;7.63;;;8.00;99.90;;;;;;6064823;23;95645;-72
2022/11/24 01:08:39;;;;;;;20.73;7.68;;;7.90;99.90;;;;;;6067048;23;92364;-72
2022/11/24 01:11:16;;;;;;;16.77;7.50;;;7.80;99.90;;;;;;6065689;23;91723;-72
2022/11/24 01:13:46;;;;;;;19.52;7.72;;;7.90;99.90;;;;;;6066789;23;92433;-72
2022/11/24 01:16:29;;;;;;;19.52;7.70;;;7.80;99.90;;;;;;6064786;23;95591;-72
2022/11/24 01:18:56;;;;;;;21.08;7.82;;;7.80;99.90;;;;;;6065734;23;95663;-72
2022/11/24 01:21:24;;;;;;;19.73;6.93;;;7.80;99.90;;;;;;6065113;23;92440;-72
2022/11/24 01:23:51;;;;;;;16.45;7.03;;;7.80;99.90;;;;;;6066087;23;105829;-72
2022/11/24 01:26:20;;;;;;;19.17;6.80;;;7.70;99.90;;;;;;6064875;23;93141;-72
2022/11/24 01:28:55;;;;;;;17.75;7.55;;;7.70;99.90;;;;;;6065061;23;92454;-72
2022/11/24 01:31:23;;;;;;;22.02;7.00;;;7.70;99.90;;;;;;6066638;23;92474;-72
2022/11/24 01:33:50;;;;;;;23.27;7.68;;;7.70;99.90;;;;;;6066612;23;93113;-72
2022/11/24 01:36:17;;;;;;;22.33;7.13;;;7.70;99.90;;;;;;6066712;23;92669;-72
2022/11/24 01:38:44;;;;;;;22.25;7.03;;;7.60;99.90;;;;;;6065441;23;92398;-72
2022/11/24 01:41:15;;;;;;;16.35;5.63;;;7.60;99.90;;;;;;6064814;23;92405;-72
2022/11/24 01:43:43;;;;;;;22.05;7.22;;;7.60;99.90;;;;;;6063930;23;95623;-72
2022/11/24 01:46:18;;;;;;;19.50;6.60;;;7.60;99.90;;;;;;6064727;23;97855;-72
2022/11/24 01:49:01;;;;;;;20.80;6.85;;;7.60;99.90;;;;;;6065575;23;92444;-72
2022/11/24 01:51:32;;;;;;;24.10;6.40;;;7.60;99.90;;;;;;6065040;23;92361;-72
2022/11/24 01:54:08;;;;;;;17.58;6.35;;;7.50;99.90;;;;;;6066564;23;93069;-72
2022/11/24 01:56:39;;;;;;;18.27;6.50;;;7.50;99.90;;;;;;6064979;23;95552;-72
2022/11/24 01:59:10;;;;;;;20.13;6.90;;;7.60;99.90;;;;;;6066896;23;92686;-72
2022/11/24 02:01:37;;;;;;;19.88;6.28;;;7.50;99.90;;;;;;6067262;23;91655;-72
2022/11/24 02:04:10;;;;;;;18.67;6.35;;;7.50;99.90;;;;;;6064480;23;107906;-72
2022/11/24 02:06:39;;;;;;;20.75;6.65;;;7.50;99.90;;;;;;6066568;23;92936;-72
2022/11/24 02:09:31;;;;;;;18.52;6.70;;;7.50;99.90;;;;;;6065305;23;94704;-72
2022/11/24 02:12:00;;;;;;;19.40;6.22;;;7.50;99.90;;;;;;6066696;23;92863;-72
2022/11/24 02:14:27;;;;;;;19.88;5.47;;;7.50;99.90;;;;;;6064819;23;93070;-72
2022/11/24 02:16:54;;;;;;;18.98;5.88;;;7.60;99.90;;;;;;6065004;23;93006;-72
2022/11/24 02:20:02;;;;;;;18.08;5.68;;;7.60;99.90;;;;;;6066466;23;92378;-72
2022/11/24 02:22:38;;;;;;;22.13;5.80;;;7.70;99.90;;;;;;6050155;23;92895;-72
2022/11/24 02:25:17;;;;;;;17.25;5.18;;;7.80;99.90;;;;;;6066476;23;93224;-72
2022/11/24 02:27:44;;;;;;;18.65;5.40;;;7.80;99.90;;;;;;6066886;23;92946;-72
2022/11/24 02:30:16;;;;;;;19.35;5.22;;;7.70;99.90;;;;;;6066488;23;92323;-72
2022/11/24 02:32:43;;;;;;;19.42;5.22;;;7.70;99.90;;;;;;6066697;23;93096;-72
2022/11/24 02:35:12;;;;;;;19.65;5.22;;;7.70;99.90;;;;;;6064172;23;111557;-72
2022/11/24 02:37:39;;;;;;;19.73;5.47;;;7.70;99.90;;;;;;6064674;23;95399;-72
2022/11/24 02:40:07;;;;;;;20.42;6.45;;;7.70;99.90;;;;;;6065096;23;93025;-72
2022/11/24 02:42:38;;;;;;;21.13;6.10;;;7.70;99.90;;;;;;6064862;23;92496;-72
2022/11/24 02:45:08;;;;;;;23.67;5.60;;;7.60;99.90;;;;;;6066012;23;93226;-72
2022/11/24 02:47:34;;;;;;;22.80;5.80;;;7.60;99.90;;;;;;6066168;23;92907;-72
2022/11/24 02:50:01;;;;;;;26.48;5.93;;;7.60;99.90;;;;;;6066596;23;92387;-72
2022/11/24 02:52:28;;;;;;;20.40;4.93;;;7.60;99.90;;;;;;6065100;23;91694;-72
2022/11/24 02:54:55;;;;;;;22.20;4.97;;;7.60;99.90;;;;;;6066160;23;92954;-72
2022/11/24 02:57:22;;;;;;;22.80;5.68;;;7.50;99.90;;;;;;6064461;23;92441;-72
2022/11/24 02:59:49;;;;;;;17.83;4.53;;;7.60;99.90;;;;;;6063637;23;94883;-72
2022/11/24 03:02:16;;;;;;;20.20;4.95;;;7.60;99.90;;;;;;6064474;23;92473;-72
2022/11/24 03:04:43;;;;;;;18.63;5.25;;;7.60;99.90;;;;;;6064525;23;98532;-72
2022/11/24 03:07:10;;;;;;;17.20;5.22;;;7.60;99.90;;;;;;6066239;23;92900;-72
2022/11/24 03:09:37;;;;;;;14.35;4.53;;;7.70;99.90;;;;;;6064470;23;92464;-72
2022/11/24 03:12:05;;;;;;;19.17;4.60;;;7.70;99.90;;;;;;6066425;23;92380;-72
2022/11/24 03:14:31;;;;;;;17.83;5.18;;;7.70;99.90;;;;;;6064854;23;93133;-72
2022/11/24 03:16:59;;;;;;;13.80;4.63;;;7.80;99.90;;;;;;6016771;23;95704;-72
2022/11/24 03:19:25;;;;;;;22.90;5.35;;;7.90;99.90;;;;;;6064792;23;92477;-72
2022/11/24 03:21:52;;;;;;;19.90;4.68;;;7.90;99.90;;;;;;6066254;23;92413;-72
2022/11/24 03:24:19;;;;;;;23.83;5.32;;;7.90;99.90;;;;;;6062909;23;96160;-72
2022/11/24 03:26:46;;;;;;;19.27;4.65;;;8.00;99.90;;;;;;6064578;23;95198;-72
2022/11/24 03:29:13;;;;;;;18.83;5.05;;;8.10;99.90;;;;;;6066383;23;92330;-72
2022/11/24 03:31:40;;;;;;;19.67;5.53;;;8.20;99.90;;;;;;6064588;23;92317;-72
2022/11/24 03:34:07;;;;;;;16.90;4.85;;;8.20;99.90;;;;;;6065489;23;107570;-72
2022/11/24 03:36:34;;;;;;;19.17;4.13;;;8.30;99.90;;;;;;6064225;23;93120;-72
2022/11/24 03:39:01;;;;;;;17.95;4.50;;;8.30;99.90;;;;;;6066339;23;92392;-72
2022/11/24 03:41:28;;;;;;;15.63;3.75;;;8.40;99.90;;;;;;6066398;23;91698;-72
2022/11/24 03:43:55;;;;;;;19.00;4.85;;;8.40;99.90;;;;;;6064217;23;93271;-72
2022/11/24 03:46:22;;;;;;;18.15;3.95;;;8.30;99.90;;;;;;6066133;23;93217;-72
2022/11/24 03:48:48;;;;;;;22.27;4.70;;;8.30;99.90;;;;;;6063382;23;94931;-72
2022/11/24 03:51:15;;;;;;;22.58;4.50;;;8.30;99.90;;;;;;6066035;23;92448;-72
2022/11/24 03:53:42;;;;;;;16.42;4.18;;;8.30;99.90;;;;;;6063818;23;93932;-72
2022/11/24 03:56:09;;;;;;;13.07;3.25;;;8.40;99.90;;;;;;6066111;23;93469;-72
2022/11/24 03:58:36;;;;;;;11.48;4.30;;;8.40;99.90;;;;;;6065818;23;92376;-72
2022/11/24 04:01:03;;;;;;;18.95;3.65;;;8.40;99.90;;;;;;6064551;23;92436;-72
2022/11/24 04:03:30;;;;;;;14.27;3.90;;;8.40;99.90;;;;;;6065582;23;93830;-72
2022/11/24 04:05:57;;;;;;;16.30;3.70;;;8.40;99.90;;;;;;6064611;23;95440;-72
2022/11/24 04:08:24;;;;;;;16.30;4.15;;;8.50;99.90;;;;;;6065599;23;92486;-72
2022/11/24 04:10:52;;;;;;;18.67;4.18;;;8.40;99.90;;;;;;6067486;23;92417;-72
2022/11/24 04:13:23;;;;;;;18.98;4.05;;;8.40;99.90;;;;;;6065655;23;95503;-72
2022/11/24 04:15:50;;;;;;;18.75;4.40;;;8.40;99.90;;;;;;6066734;23;95494;-72
2022/11/24 04:18:18;;;;;;;18.17;3.90;;;8.30;99.90;;;;;;6067121;23;92451;-72
2022/11/24 04:20:45;;;;;;;13.13;3.05;;;8.20;99.90;;;;;;6067129;23;92384;-72
2022/11/24 04:23:12;;;;;;;21.10;4.63;;;8.20;99.90;;;;;;6067013;23;92694;-72
2022/11/24 04:25:40;;;;;;;19.88;4.28;;;8.10;99.90;;;;;;6065554;23;92889;-72
2022/11/24 04:28:07;;;;;;;18.42;3.75;;;8.00;99.90;;;;;;6041565;23;92418;-72
2022/11/24 04:30:35;;;;;;;17.05;4.07;;;8.00;99.90;;;;;;6065503;23;91789;-72
2022/11/24 04:33:01;;;;;;;23.02;4.22;;;8.00;99.90;;;;;;6066582;23;104243;-72
2022/11/24 04:35:28;;;;;;;15.75;3.90;;;7.90;99.90;;;;;;6065257;23;95905;-72
2022/11/24 04:37:55;;;;;;;16.63;4.30;;;7.90;99.90;;;;;;6065602;23;94705;-72
2022/11/24 04:40:22;;;;;;;15.93;3.50;;;7.90;99.90;;;;;;6067070;23;92502;-72
2022/11/24 04:42:54;;;;;;;20.58;4.10;;;7.90;99.90;;;;;;6066684;23;93129;-72
2022/11/24 04:45:22;;;;;;;12.30;3.80;;;7.90;99.90;;;;;;6064811;23;95532;-72
2022/11/24 04:47:49;;;;;;;15.43;3.42;;;7.90;99.90;;;;;;6066861;23;92416;-72
2022/11/24 04:50:16;;;;;;;17.52;3.65;;;7.80;99.90;;;;;;6041336;23;93029;-72
2022/11/24 04:52:43;;;;;;;11.70;3.45;;;7.80;99.90;;;;;;6066527;23;93205;-72
2022/11/24 04:55:10;;;;;;;14.38;3.53;;;7.80;99.90;;;;;;6067255;23;92930;-72
2022/11/24 04:57:37;;;;;;;16.85;3.30;;;7.70;99.90;;;;;;6040673;23;92526;-72
2022/11/24 05:00:05;;;;;;;17.42;3.63;;;7.70;99.90;;;;;;6065572;23;92519;-72
2022/11/24 05:02:32;;;;;;;16.60;4.10;;;7.70;99.90;;;;;;6063739;23;95883;-72
2022/11/24 05:04:58;;;;;;;18.83;3.45;;;7.60;99.90;;;;;;6064746;23;108088;-72
2022/11/24 05:07:26;;;;;;;14.32;3.90;;;7.60;99.90;;;;;;6067074;23;92337;-72
2022/11/24 05:12:38;;;;;;;15.40;3.17;;;7.60;99.90;;;;;;6066583;23;93094;-72
2022/11/24 05:15:06;;;;;;;11.40;3.00;;;7.50;99.90;;;;;;6066677;23;92945;-72
2022/11/24 05:17:35;;;;;;;19.90;4.25;;;7.50;99.90;;;;;;6066801;23;92325;-72
2022/11/24 05:20:04;;;;;;;17.30;3.17;;;7.50;99.90;;;;;;6067266;23;91663;-72
2022/11/24 05:22:31;;;;;;;15.05;3.13;;;7.50;99.90;;;;;;6066888;23;93077;-72
2022/11/24 05:24:58;;;;;;;12.63;3.10;;;7.50;99.90;;;;;;6066383;23;93028;-72
2022/11/24 05:27:25;;;;;;;12.32;3.58;;;7.40;99.90;;;;;;6063789;23;94788;-72
2022/11/24 05:29:52;;;;;;;17.85;4.47;;;7.40;99.90;;;;;;6065126;23;92831;-72
2022/11/24 05:32:19;;;;;;;14.40;2.88;;;7.40;99.90;;;;;;6064987;23;95361;-72
2022/11/24 05:34:46;;;;;;;19.58;3.78;;;7.40;99.90;;;;;;6065087;23;93153;-72
2022/11/24 05:37:13;;;;;;;22.52;4.07;;;7.40;99.90;;;;;;6066716;23;92330;-72
2022/11/24 05:39:40;;;;;;;15.40;3.45;;;7.40;99.90;;;;;;6064293;23;104263;-72
2022/11/24 05:44:53;;;;;;;19.15;3.55;;;7.50;99.90;;;;;;6066359;23;91692;-72
2022/11/24 05:47:21;;;;;;;25.85;4.53;;;7.50;99.90;;;;;;6066864;23;92405;-72
2022/11/24 05:49:48;;;;;;;15.50;3.78;;;7.60;99.90;;;;;;6064758;23;92391;-72
2022/11/24 05:52:16;;;;;;;12.63;3.40;;;7.70;99.90;;;;;;6065354;23;95301;-72
2022/11/24 05:54:42;;;;;;;12.18;3.15;;;7.70;99.90;;;;;;6064672;23;98038;-72
2022/11/24 05:57:09;;;;;;;15.00;3.63;;;7.80;99.90;;;;;;6041148;23;92389;-72
2022/11/24 05:59:36;;;;;;;14.75;3.22;;;7.80;99.90;;;;;;6041074;23;92433;-72
2022/11/24 06:02:03;;;;;;;17.70;3.40;;;7.80;99.90;;;;;;6066415;23;93137;-72
2022/11/24 06:04:31;;;;;;;15.52;3.30;;;7.80;99.90;;;;;;6066441;23;92965;-72
2022/11/24 06:06:58;;;;;;;21.85;3.72;;;7.80;99.90;;;;;;6066431;23;92389;-72
2022/11/24 06:09:25;;;;;;;14.52;3.45;;;7.80;99.90;;;;;;6066579;23;101202;-72
2022/11/24 06:11:52;;;;;;;16.02;3.20;;;7.70;99.90;;;;;;6066141;23;95880;-72
2022/11/24 06:14:19;;;;;;;16.02;3.10;;;7.70;99.90;;;;;;6066442;23;92784;-72
2022/11/24 06:16:46;;;;;;;12.70;3.08;;;7.70;99.90;;;;;;6063288;23;94758;-72
2022/11/24 06:19:13;;;;;;;19.13;3.75;;;7.70;99.90;;;;;;6065110;23;92437;-72
2022/11/24 06:21:40;;;;;;;17.58;3.70;;;7.70;99.90;;;;;;6064916;23;93168;-72
2022/11/24 06:24:07;;;;;;;15.60;3.45;;;7.70;99.90;;;;;;6064688;23;92955;-72
2022/11/24 06:26:34;;;;;;;16.63;2.92;;;7.70;99.90;;;;;;6066694;23;92280;-72
2022/11/24 06:29:01;;;;;;;15.88;3.53;;;7.70;99.90;;;;;;6064419;23;92789;-72
2022/11/24 06:31:28;;;;;;;16.50;3.22;;;7.70;99.90;;;;;;6064869;23;93237;-72
2022/11/24 06:33:55;;;;;;;14.65;3.00;;;7.70;99.90;;;;;;6064804;23;95533;-72
2022/11/24 06:36:22;;;;;;;16.63;3.25;;;7.60;99.90;;;;;;6066669;23;92420;-72
2022/11/24 06:38:49;;;;;;;13.68;3.55;;;7.60;99.90;;;;;;6064367;23;92485;-72
2022/11/24 06:41:17;;;;;;;19.83;3.50;;;7.60;99.90;;;;;;6064131;23;108963;-72
2022/11/24 06:43:44;;;;;;;17.52;3.72;;;7.60;99.90;;;;;;6065739;23;95334;-71
2022/11/24 06:46:11;;;;;;;11.57;3.00;;;7.60;99.90;;;;;;6064789;23;92466;-72
2022/11/24 06:48:38;;;;;;;19.73;4.00;;;7.60;99.90;;;;;;6065060;23;92383;-72
2022/11/24 06:51:08;;;;;;;18.98;3.67;;;7.60;99.90;;;;;;6064602;23;93184;-73
2022/11/24 06:53:37;;;;;;;17.63;3.78;;;7.60;99.90;;;;;;6066381;23;93088;-73
2022/11/24 06:56:09;;;;;;;16.23;3.50;;;7.60;99.90;;;;;;6066235;23;92438;-73
2022/11/24 06:58:43;;;;;;;15.10;3.28;;;7.60;99.90;;;;;;6066858;23;91549;-73
2022/11/24 07:01:23;;;;;;;19.75;3.60;;;7.60;99.90;;;;;;6064343;23;95801;-73
2022/11/24 07:03:51;;;;;;;18.77;4.45;;;7.60;99.90;;;;;;6064681;23;95513;-73
2022/11/24 07:06:20;;;;;;;20.55;4.05;;;7.60;99.90;;;;;;6063517;23;94879;-73
2022/11/24 07:08:48;;;;;;;20.23;3.70;;;7.60;99.90;;;;;;6064919;23;92398;-73
2022/11/24 07:11:21;;;;;;;16.30;3.58;;;7.60;99.90;;;;;;6039958;23;95611;-73
2022/11/24 07:13:50;;;;;;;13.30;3.30;;;7.60;99.90;;;;;;6066186;23;93015;-72
2022/11/24 07:16:24;;;;;;;13.40;3.58;;;7.60;99.90;;;;;;6064900;23;92462;-72
2022/11/24 07:18:52;;;;;;;17.50;3.90;;;7.60;99.90;;;;;;6066200;23;92334;-72
2022/11/24 07:21:21;;;;;;;18.25;3.63;;;7.60;99.90;;;;;;6064597;23;93276;-73
2022/11/24 07:23:53;;;;;;;20.38;3.95;;;7.60;99.90;;;;;;6040639;23;95597;-73
2022/11/24 07:26:21;;;;;;;11.75;3.25;;;7.60;99.90;;;;;;6064888;23;92462;-72
2022/11/24 07:28:48;;;;;;;13.32;3.72;;;7.50;99.90;;;;;;6066325;23;92554;-73
2022/11/24 07:31:17;;;;;;;16.95;3.83;;;7.50;99.90;;;;;;6063024;23;95648;-73
2022/11/24 07:33:49;;;;;;;21.52;3.53;;;7.50;99.90;;;;;;6064519;23;95577;-73
2022/11/24 07:36:16;;;;;;;13.93;4.00;;;7.50;99.90;;;;;;6064226;23;92440;-73
2022/11/24 07:38:43;;;;;;;14.02;3.58;;;7.50;99.90;;;;;;6066265;23;92463;-73
2022/11/24 07:41:12;;;;;;;16.42;3.35;;;7.50;99.90;;;;;;6065778;23;93247;-73
2022/11/24 07:43:39;;;;;;;15.00;3.35;;;7.50;99.90;;;;;;6065693;23;92329;-73
2022/11/24 07:46:10;;;;;;;17.95;3.10;;;7.50;99.90;;;;;;6064220;23;92313;-73
2022/11/24 07:48:37;;;;;;;18.00;3.92;;;7.50;99.90;;;;;;6066709;23;91653;-73
2022/11/24 07:51:05;;;;;;;19.77;3.75;;;7.40;99.90;;;;;;6065898;23;93311;-73
2022/11/24 07:53:33;;;;;;;18.52;3.95;;;7.40;99.90;;;;;;6065749;23;92872;-73
2022/11/24 07:56:01;;;;;;;17.42;4.18;;;7.40;99.90;;;;;;6064615;23;94950;-73
2022/11/24 07:58:31;;;;;;;14.43;3.53;;;7.40;99.90;;;;;;6066004;23;92309;-73
2022/11/24 08:00:59;;;;;;;16.52;4.60;;;7.40;99.90;;;;;;6064309;23;95488;-73
2022/11/24 08:03:26;;;;;;;17.80;4.85;;;7.40;99.90;;;;;;6063469;23;109350;-73
2022/11/24 08:05:58;;;;;;;19.17;4.57;;;7.50;99.90;;;;;;6064662;23;92335;-73
2022/11/24 08:08:45;;;;;;;14.95;3.85;;;7.50;99.90;;;;;;6065859;23;92396;-73
2022/11/24 08:11:16;;;;;;;19.38;5.13;;;7.40;99.90;;;;;;6065035;23;105306;-73
2022/11/24 08:13:44;;;;;;;18.88;4.68;;;7.50;99.90;;;;;;6066195;23;93701;-73
2022/11/24 08:16:14;;;;;;;20.75;4.05;;;7.50;99.90;;;;;;6064399;23;92437;-73
2022/11/24 08:18:42;;;;;;;22.27;5.45;;;7.50;99.90;;;;;;6064388;23;92421;-73
2022/11/24 08:21:12;;;;;;;17.45;4.53;;;7.50;99.90;;;;;;6064040;23;95632;-73
2022/11/24 08:23:40;;;;;;;20.17;4.97;;;7.60;99.90;;;;;;6065648;23;95428;-73
2022/11/24 08:26:14;;;;;;;18.92;4.32;;;7.60;99.90;;;;;;6065642;23;92317;-73
2022/11/24 08:28:41;;;;;;;13.40;4.30;;;7.60;99.90;;;;;;6065913;23;92292;-73
2022/11/24 08:31:12;;;;;;;19.83;5.13;;;7.70;99.90;;;;;;6063571;23;95857;-73
2022/11/24 08:33:39;;;;;;;17.50;4.85;;;7.70;99.90;;;;;;6065648;23;92931;-73
2022/11/24 08:36:09;;;;;;;14.43;4.20;;;7.80;99.90;;;;;;6065632;23;92313;-73
2022/11/24 08:38:37;;;;;;;18.65;4.97;;;7.90;99.90;;;;;;6066258;23;92199;-73
2022/11/24 08:41:06;;;;;;;15.82;4.65;;;8.00;99.90;;;;;;6065043;23;104522;-73
2022/11/24 08:43:33;;;;;;;17.65;4.80;;;8.00;99.90;;;;;;6065225;23;92962;-73
2022/11/24 08:46:06;;;;;;;17.73;4.57;;;8.10;99.90;;;;;;6062714;23;94837;-73
2022/11/24 08:48:34;;;;;;;18.23;5.03;;;8.20;99.90;;;;;;6065687;23;92368;-73
2022/11/24 08:51:12;;;;;;;19.52;5.07;;;8.30;99.90;;;;;;6065566;23;93286;-73
2022/11/24 08:53:40;;;;;;;17.80;4.97;;;8.40;99.90;;;;;;6064954;23;92949;-73
2022/11/24 08:56:08;;;;;;;17.23;4.82;;;8.40;99.90;;;;;;6067181;23;92839;-73
2022/11/24 08:58:35;;;;;;;21.98;4.65;;;8.50;99.90;;;;;;6065524;23;92479;-73
2022/11/24 09:01:08;;;;;;;20.67;5.35;;;8.60;99.90;;;;;;6040939;23;95780;-73
2022/11/24 09:03:37;;;;;;;17.13;4.60;;;8.70;99.90;;;;;;6067377;23;93010;-73
2022/11/24 09:06:05;;;;;;;15.88;4.40;;;8.70;99.90;;;;;;6066884;23;92727;-73
2022/11/24 09:08:33;;;;;;;16.67;4.90;;;8.80;99.90;;;;;;6066207;23;101528;-73
2022/11/24 09:11:01;;;;;;;13.20;3.53;;;8.90;99.90;;;;;;6039830;23;98098;-73
2022/11/24 09:13:28;;;;;;;18.55;5.13;;;9.00;99.90;;;;;;6066332;23;95259;-73
2022/11/24 09:15:55;;;;;;;15.60;4.53;;;9.00;99.90;;;;;;6066994;23;92321;-73
2022/11/24 09:18:22;;;;;;;14.98;4.53;;;9.10;99.90;;;;;;6064780;23;92465;-73
2022/11/24 09:20:57;;;;;;;20.90;4.43;;;9.20;99.90;;;;;;6065156;23;95839;-73
2022/11/24 09:23:24;;;;;;;12.35;4.10;;;9.20;99.90;;;;;;6041280;23;92551;-73
2022/11/24 09:25:51;;;;;;;12.27;3.78;;;9.30;99.90;;;;;;6066977;23;92898;-73
2022/11/24 09:28:17;;;;;;;13.85;4.10;;;9.40;99.90;;;;;;6065579;23;91808;-73
2022/11/24 09:30:44;;;;;;;12.65;4.38;;;9.40;99.90;;;;;;6064906;23;95759;-73
2022/11/24 09:33:11;;;;;;;15.95;4.25;;;9.50;99.90;;;;;;6066611;23;92953;-73
2022/11/24 09:35:38;;;;;;;15.82;4.13;;;9.60;99.90;;;;;;6065283;23;94708;-73
2022/11/24 09:38:05;;;;;;;10.77;3.40;;;9.60;99.90;;;;;;6064888;23;96273;-73
2022/11/24 09:40:32;;;;;;;10.85;3.60;;;9.70;99.90;;;;;;6064613;23;95536;-73
2022/11/24 09:43:10;;;;;;;7.93;3.50;;;9.70;99.90;;;;;;6066584;23;92997;-73
2022/11/24 09:46:05;;;;;;;12.50;3.22;;;9.80;99.90;;;;;;6063552;23;92783;-73
2022/11/24 09:48:39;;;;;;;6.20;2.53;;;9.90;99.90;;;;;;6063323;23;92425;-73
2022/11/24 09:51:13;;;;;;;12.57;3.38;;;9.90;99.90;;;;;;6064927;23;93194;-73
2022/11/24 09:54:04;;;;;;;9.02;2.78;;;10.00;99.90;;;;;;6039586;23;94718;-73
2022/11/24 09:56:33;;;;;;;10.02;3.33;;;10.00;99.90;;;;;;6063348;23;92447;-73
2022/11/24 09:59:08;;;;;;;11.55;3.67;;;10.00;99.90;;;;;;6064856;23;92459;-73
2022/11/24 10:01:39;;;;;;;7.38;2.65;;;10.10;99.90;;;;;;6063043;23;94746;-73
2022/11/24 10:04:28;;;;;;;9.57;3.13;;;10.10;99.90;;;;;;6064056;23;95374;-73
2022/11/24 10:07:10;;;;;;;4.28;2.53;;;10.20;99.90;;;;;;6063608;23;92362;-73
2022/11/24 10:09:56;;;;;;;7.57;3.45;;;10.20;99.90;;;;;;6063312;23;92461;-73
2022/11/24 10:12:48;;;;;;;5.57;2.53;;;10.20;99.90;;;;;;6062958;23;92481;-73
2022/11/24 10:15:24;;;;;;;5.88;2.33;;;10.30;99.90;;;;;;6064695;23;92918;-73
2022/11/24 10:18:50;;;;;;;7.05;2.65;;;10.30;99.90;;;;;;6064978;23;92362;-73
2022/11/24 10:21:52;;;;;;;7.00;2.60;;;10.40;99.90;;;;;;6001065;23;91695;-73
2022/11/24 10:24:46;;;;;;;4.70;2.47;;;10.40;99.90;;;;;;6063197;23;93009;-73
2022/11/24 10:27:20;;;;;;;5.47;2.42;;;10.40;99.90;;;;;;6062947;23;95503;-73
2022/11/24 10:29:51;;;;;;;4.93;2.30;;;10.50;99.90;;;;;;6061901;23;94789;-73
2022/11/24 10:32:24;;;;;;;4.40;2.60;;;10.50;99.90;;;;;;6064741;23;92365;-73
2022/11/24 10:34:53;;;;;;;3.85;2.15;;;10.50;99.90;;;;;;6064583;23;93262;-73
2022/11/24 10:37:29;;;;;;;4.47;2.35;;;10.60;99.90;;;;;;6064622;23;92268;-73
2022/11/24 10:40:15;;;;;;;4.50;2.17;;;10.70;99.90;;;;;;6039102;23;92365;-73
2022/11/24 10:43:09;;;;;;;4.63;2.10;;;10.70;99.90;;;;;;6062033;23;92464;-73
2022/11/24 10:46:18;;;;;;;3.88;2.10;;;10.70;99.90;;;;;;6066577;23;93909;-73
2022/11/24 10:48:50;;;;;;;3.17;2.03;;;10.80;99.90;;;;;;6066442;23;93003;-73
2022/11/24 10:51:54;;;;;;;3.35;2.20;;;10.80;99.90;;;;;;6066703;23;92896;-73
2022/11/24 10:54:22;;;;;;;4.70;2.40;;;10.90;99.90;;;;;;6064858;23;92456;-73
2022/11/24 10:56:51;;;;;;;3.75;2.13;;;10.80;99.90;;;;;;6038496;23;98074;-73
2022/11/24 10:59:36;;;;;;;4.95;2.65;;;10.90;99.90;;;;;;6064187;23;98009;-73
2022/11/24 11:02:26;;;;;;;6.18;2.50;;;11.00;99.90;;;;;;6066497;23;92384;-73
2022/11/24 11:04:53;;;;;;;9.00;3.15;;;11.00;99.90;;;;;;6066343;23;92374;-73
2022/11/24 11:07:22;;;;;;;7.13;2.60;;;11.00;99.90;;;;;;6066152;23;93197;-73
2022/11/24 11:09:50;;;;;;;4.97;2.40;;;11.10;99.90;;;;;;6065872;23;97006;-73
2022/11/24 11:12:28;;;;;;;4.55;2.60;;;11.00;99.90;;;;;;6066646;23;92293;-74
2022/11/24 11:15:30;;;;;;;5.03;3.08;;;11.00;99.90;;;;;;6066759;23;92145;-73
2022/11/24 11:17:59;;;;;;;3.78;2.90;;;11.00;99.90;;;;;;6066320;23;93208;-73
2022/11/24 11:20:32;;;;;;;5.30;3.10;;;11.00;99.90;;;;;;6064660;23;93239;-73
2022/11/24 11:23:03;;;;;;;6.32;2.95;;;11.10;99.90;;;;;;6063527;23;94847;-73
2022/11/24 11:25:34;;;;;;;6.45;3.25;;;11.20;99.90;;;;;;6066121;23;92353;-73
2022/11/24 11:28:21;;;;;;;7.80;2.95;;;11.30;99.90;;;;;;6064589;23;95643;-73
2022/11/24 11:31:05;;;;;;;5.35;3.05;;;11.40;99.90;;;;;;6064294;23;92436;-73
2022/11/24 11:33:56;;;;;;;5.72;2.88;;;11.50;99.90;;;;;;6066135;23;92370;-73
2022/11/24 11:36:45;;;;;;;6.43;3.38;;;11.50;99.90;;;;;;6064700;23;92524;-73
2022/11/24 11:39:21;;;;;;;5.57;3.03;;;11.50;99.90;;;;;;6066097;23;93134;-73
2022/11/24 11:42:05;;;;;;;6.18;3.28;;;11.50;99.90;;;;;;6066253;23;91772;-73
2022/11/24 11:45:00;;;;;;;5.75;3.30;;;11.60;99.90;;;;;;6064307;23;92521;-73
2022/11/24 11:47:45;;;;;;;8.10;3.60;;;11.60;99.90;;;;;;6050265;23;92558;-73
2022/11/24 11:50:19;;;;;;;5.95;3.67;;;11.70;99.90;;;;;;6064457;23;95569;-73
2022/11/24 11:53:13;;;;;;;7.40;3.90;;;11.70;99.90;;;;;;6040055;23;97965;-73
2022/11/24 11:56:02;;;;;;;8.83;3.77;;;11.90;99.90;;;;;;6066218;23;92367;-73
2022/11/24 11:58:53;;;;;;;8.82;3.60;;;12.10;99.90;;;;;;6064640;23;92492;-73
2022/11/24 12:01:51;;;;;;;6.28;3.40;;;12.30;99.90;;;;;;6066168;23;93314;-73
2022/11/24 12:04:27;;;;;;;4.32;3.65;;;12.40;99.90;;;;;;6065858;23;93062;-73
2022/11/24 12:07:06;;;;;;;6.20;3.65;;;12.50;99.90;;;;;;6064284;23;92544;-73
2022/11/24 12:10:00;;;;;;;8.65;3.35;;;12.60;99.90;;;;;;6064918;23;91677;-73
2022/11/24 12:12:35;;;;;;;;;;;12.60;99.90;;;;;;6065001;23;93078;-73
2022/11/24 12:15:05;;;;;;;7.60;3.33;;;12.50;99.90;;;;;;6067305;23;92444;-73
2022/11/24 12:17:49;;;;;;;5.95;3.60;;;12.40;99.90;;;;;;6063415;23;94840;-73
2022/11/24 12:20:30;;;;;;;8.55;3.85;;;12.40;99.90;;;;;;6065818;23;92384;-73
2022/11/24 12:23:34;;;;;;;7.80;3.53;;;12.40;99.90;;;;;;6039707;23;95603;-73
2022/11/24 12:26:24;;;;;;;7.75;3.95;;;12.40;99.90;;;;;;6065514;23;93216;-73
2022/11/24 12:29:12;;;;;;;8.35;3.60;;;12.40;99.90;;;;;;6054087;23;92453;-73
2022/11/24 12:32:00;;;;;;;7.95;4.15;;;12.40;99.90;;;;;;6067134;23;93293;-73
2022/11/24 12:34:37;;;;;;;5.85;3.72;;;12.40;99.90;;;;;;6066887;23;92419;-73
2022/11/24 12:37:20;;;;;;;8.32;3.40;;;12.40;99.90;;;;;;6065961;23;96490;-73
2022/11/24 12:39:56;;;;;;;9.02;3.83;;;12.50;99.90;;;;;;6065243;23;92392;-73
2022/11/24 12:42:29;;;;;;;9.55;3.72;;;12.50;99.90;;;;;;6065509;23;92429;-73
2022/11/24 12:45:32;;;;;;;6.37;3.50;;;12.50;99.90;;;;;;6064879;23;95672;-73
2022/11/24 12:48:23;;;;;;;13.75;4.07;;;12.50;99.90;;;;;;6064997;23;97874;-73
2022/11/24 12:50:54;;;;;;;8.50;3.80;;;12.50;99.90;;;;;;6065451;23;92459;-73
2022/11/24 12:53:28;;;;;;;10.20;4.43;;;12.50;99.90;;;;;;6067196;23;92349;-73
2022/11/24 12:56:06;;;;;;;8.50;4.18;;;12.50;99.90;;;;;;6066552;23;93298;-73
2022/11/24 12:58:53;;;;;;;12.98;4.68;;;12.50;99.90;;;;;;6066810;23;93290;-73
2022/11/24 13:01:34;;;;;;;8.80;4.15;;;12.60;99.90;;;;;;6067024;23;92387;-73
2022/11/24 13:04:22;;;;;;;10.10;4.32;;;12.60;99.90;;;;;;6067424;23;91562;-73
2022/11/24 13:07:10;;;;;;;10.20;4.25;;;12.60;99.90;;;;;;6066626;23;93222;-73
2022/11/24 13:09:57;;;;;;;10.75;4.43;;;12.60;99.90;;;;;;6064845;23;102563;-73
2022/11/24 13:12:24;;;;;;;6.35;3.90;;;12.60;99.90;;;;;;6065169;23;94796;-73
2022/11/24 13:14:51;;;;;;;11.23;4.80;;;12.50;99.90;;;;;;6065157;23;92433;-73
2022/11/24 13:17:31;;;;;;;9.07;4.75;;;12.50;99.90;;;;;;6064957;23;95814;-73